createdAt,value
2023-01-06T00:01:18.562Z,13.10
2023-01-06T00:03:20.584Z,10.80
2023-01-06T00:05:22.761Z,7.57
2023-01-06T00:07:24.814Z,10.70
2023-01-06T00:09:26.795Z,11.13
2023-01-06T00:11:28.934Z,17.13
2023-01-06T00:13:30.936Z,9.70
2023-01-06T00:15:33.963Z,14.13
2023-01-06T00:17:35.973Z,8.43
2023-01-06T00:19:37.935Z,17.73
2023-01-06T00:21:42.515Z,11.40
2023-01-06T00:23:44.551Z,13.90
2023-01-06T00:25:50.755Z,7.73
2023-01-06T00:27:52.758Z,9.30
2023-01-06T00:29:54.726Z,11.10
2023-01-06T00:32:00.316Z,16.00
2023-01-06T00:34:02.352Z,10.67
2023-01-06T00:36:05.044Z,12.70
2023-01-06T00:38:07.673Z,19.53
2023-01-06T00:40:10.314Z,14.77
2023-01-06T00:42:13.038Z,18.60
2023-01-06T00:44:15.046Z,13.70
2023-01-06T00:46:17.084Z,13.73
2023-01-06T00:48:19.291Z,11.23
2023-01-06T00:50:21.409Z,11.60
2023-01-06T00:52:23.400Z,14.40
2023-01-06T00:54:26.078Z,13.83
2023-01-06T00:56:28.869Z,9.90
2023-01-06T00:58:32.129Z,11.70
2023-01-06T01:00:34.212Z,14.80
2023-01-06T01:02:36.317Z,14.03
2023-01-06T01:04:38.414Z,15.50
2023-01-06T01:06:42.623Z,14.37
2023-01-06T01:08:46.180Z,14.03
2023-01-06T01:10:48.407Z,14.33
2023-01-06T01:12:53.215Z,11.50
2023-01-06T01:14:55.575Z,14.40
2023-01-06T01:16:57.904Z,13.33
2023-01-06T01:19:00.234Z,14.83
2023-01-06T01:21:02.481Z,16.77
2023-01-06T01:23:04.525Z,21.23
2023-01-06T01:25:06.910Z,20.30
2023-01-06T01:27:09.358Z,22.93
2023-01-06T01:29:13.289Z,15.23
2023-01-06T01:31:16.255Z,12.43
2023-01-06T01:33:18.388Z,17.50
2023-01-06T01:35:21.505Z,15.40
2023-01-06T01:37:23.753Z,15.73
2023-01-06T01:39:27.556Z,11.83
2023-01-06T01:41:30.577Z,16.17
2023-01-06T01:43:52.151Z,13.13
2023-01-06T01:45:55.653Z,19.73
2023-01-06T01:48:03.554Z,28.70
2023-01-06T01:50:44.000Z,15.83
2023-01-06T01:52:50.461Z,16.43
2023-01-06T01:54:53.323Z,14.10
2023-01-06T01:57:08.964Z,15.10
2023-01-06T01:59:16.404Z,18.30
2023-01-06T02:01:18.511Z,14.37
2023-01-06T02:03:21.663Z,12.77
2023-01-06T02:05:25.357Z,19.53
2023-01-06T02:07:27.841Z,17.00
2023-01-06T02:09:34.915Z,12.20
2023-01-06T02:11:38.202Z,15.27
2023-01-06T02:13:42.080Z,21.23
2023-01-06T02:15:44.327Z,20.13
2023-01-06T02:18:11.155Z,15.23
2023-01-06T02:20:45.572Z,23.90
2023-01-06T02:23:26.155Z,14.83
2023-01-06T02:26:05.849Z,9.90
2023-01-06T02:28:23.020Z,15.53
2023-01-06T02:30:37.539Z,16.83
2023-01-06T02:33:17.812Z,26.77
2023-01-06T02:35:42.421Z,13.23
2023-01-06T02:37:50.910Z,18.67
2023-01-06T02:39:59.065Z,21.70
2023-01-06T02:42:26.180Z,23.93
2023-01-06T02:44:36.360Z,14.83
2023-01-06T02:46:54.343Z,11.43
2023-01-06T02:49:23.289Z,17.03
2023-01-06T02:51:32.301Z,22.33
2023-01-06T02:53:38.750Z,15.77
2023-01-06T02:55:49.117Z,21.30
2023-01-06T02:57:56.359Z,12.43
2023-01-06T03:00:15.338Z,16.00
2023-01-06T03:02:19.317Z,15.80
2023-01-06T03:04:29.240Z,21.50
2023-01-06T03:06:33.600Z,20.60
2023-01-06T03:08:36.618Z,20.20
2023-01-06T03:10:39.697Z,18.30
2023-01-06T03:12:48.499Z,23.93
2023-01-06T03:14:52.803Z,18.30
2023-01-06T03:16:55.418Z,26.37
2023-01-06T03:18:58.365Z,25.00
2023-01-06T03:21:06.349Z,27.43
2023-01-06T03:23:08.509Z,21.93
2023-01-06T03:25:10.937Z,22.53
2023-01-06T03:27:14.825Z,28.70
2023-01-06T03:29:18.678Z,27.40
2023-01-06T03:31:40.381Z,18.23
2023-01-06T03:34:17.740Z,23.20
2023-01-06T03:36:35.325Z,27.20
2023-01-06T03:39:04.591Z,30.07
2023-01-06T03:41:50.585Z,30.37
2023-01-06T03:44:05.313Z,26.70
2023-01-06T03:46:23.559Z,30.30
2023-01-06T03:48:31.718Z,27.17
2023-01-06T03:50:53.707Z,25.97
2023-01-06T03:53:22.245Z,29.03
2023-01-06T03:55:29.761Z,26.73
2023-01-06T03:57:43.341Z,25.23
2023-01-06T03:59:49.884Z,25.67
2023-01-06T04:01:52.094Z,23.27
2023-01-06T04:03:55.954Z,32.10
2023-01-06T04:06:01.677Z,26.60
2023-01-06T04:08:03.882Z,30.80
2023-01-06T04:10:07.345Z,33.47
2023-01-06T04:12:27.761Z,26.37
2023-01-06T04:14:29.879Z,29.60
2023-01-06T04:16:33.519Z,34.40
2023-01-06T04:18:35.763Z,31.73
2023-01-06T04:20:37.847Z,28.23
2023-01-06T04:23:02.012Z,39.30
2023-01-06T04:25:09.984Z,44.07
2023-01-06T04:27:14.522Z,30.40
2023-01-06T04:29:16.623Z,29.90
2023-01-06T04:31:19.368Z,37.57
2023-01-06T04:33:24.161Z,27.70
2023-01-06T04:35:27.980Z,30.10
2023-01-06T04:37:30.045Z,31.10
2023-01-06T04:39:32.092Z,29.13
2023-01-06T04:41:34.110Z,28.00
2023-01-06T04:43:36.117Z,21.53
2023-01-06T04:45:40.180Z,28.40
2023-01-06T04:47:42.137Z,33.23
2023-01-06T04:49:44.111Z,35.30
2023-01-06T04:51:46.105Z,37.30
2023-01-06T04:53:48.170Z,34.93
2023-01-06T04:55:50.153Z,34.33
2023-01-06T04:57:52.338Z,32.13
2023-01-06T04:59:54.330Z,32.77
2023-01-06T05:01:56.402Z,33.80
2023-01-06T05:03:58.541Z,38.77
2023-01-06T05:06:02.491Z,33.93
2023-01-06T05:08:04.543Z,37.60
2023-01-06T05:10:07.488Z,31.13
2023-01-06T05:12:09.465Z,31.83
2023-01-06T05:14:11.465Z,35.20
2023-01-06T05:16:24.149Z,31.73
2023-01-06T05:18:26.139Z,27.03
2023-01-06T05:20:28.164Z,24.60
2023-01-06T05:22:30.213Z,27.07
2023-01-06T05:24:32.235Z,18.43
2023-01-06T05:26:34.278Z,22.27
2023-01-06T05:28:36.266Z,27.07
2023-01-06T05:30:38.239Z,23.37
2023-01-06T05:32:40.247Z,27.63
2023-01-06T05:34:42.248Z,34.03
2023-01-06T05:36:44.319Z,36.57
2023-01-06T05:38:52.308Z,28.97
2023-01-06T05:40:54.731Z,23.40
2023-01-06T05:42:57.160Z,23.77
2023-01-06T05:44:59.233Z,33.00
2023-01-06T05:47:01.346Z,32.70
2023-01-06T05:49:03.769Z,30.50
2023-01-06T05:51:10.388Z,27.97
2023-01-06T05:53:12.363Z,21.43
2023-01-06T05:55:14.315Z,30.30
2023-01-06T05:57:16.375Z,35.80
2023-01-06T05:59:18.449Z,26.97
2023-01-06T06:01:25.413Z,32.40
2023-01-06T06:03:27.513Z,25.10
2023-01-06T06:05:29.572Z,35.97
2023-01-06T06:07:31.570Z,32.70
2023-01-06T06:09:33.785Z,26.03
2023-01-06T06:11:35.836Z,28.80
2023-01-06T06:13:37.827Z,34.53
2023-01-06T06:15:39.854Z,26.23
2023-01-06T06:17:41.892Z,25.13
2023-01-06T06:19:43.870Z,26.33
2023-01-06T06:21:45.850Z,31.00
2023-01-06T06:23:48.103Z,21.47
2023-01-06T06:25:50.361Z,16.50
2023-01-06T06:27:52.349Z,31.83
2023-01-06T06:29:54.380Z,18.00
2023-01-06T06:31:56.407Z,19.67
2023-01-06T06:34:00.151Z,28.80
2023-01-06T06:36:03.039Z,20.30
2023-01-06T06:38:07.076Z,21.30
2023-01-06T06:40:09.591Z,24.30
2023-01-06T06:42:11.685Z,22.07
2023-01-06T06:44:13.690Z,20.70
2023-01-06T06:46:16.230Z,22.63
2023-01-06T06:48:18.225Z,14.23
2023-01-06T06:50:20.200Z,24.23
2023-01-06T06:52:22.170Z,25.40
2023-01-06T06:54:24.223Z,16.40
2023-01-06T06:56:26.202Z,20.63
2023-01-06T06:58:28.312Z,20.60
2023-01-06T07:00:30.546Z,19.03
2023-01-06T07:02:32.633Z,21.03
2023-01-06T07:04:34.712Z,21.03
2023-01-06T07:06:36.744Z,22.47
2023-01-06T07:08:39.151Z,14.20
2023-01-06T07:10:41.249Z,21.00
2023-01-06T07:12:43.305Z,16.60
2023-01-06T07:14:45.278Z,17.80
2023-01-06T07:16:47.230Z,20.27
2023-01-06T07:18:49.245Z,20.27
2023-01-06T07:20:53.701Z,22.77
2023-01-06T07:22:55.791Z,18.60
2023-01-06T07:24:57.810Z,22.17
2023-01-06T07:26:59.799Z,17.20
2023-01-06T07:29:01.849Z,14.80
2023-01-06T07:31:04.035Z,15.10
2023-01-06T07:33:06.143Z,18.23
2023-01-06T07:35:11.148Z,18.60
2023-01-06T07:37:13.134Z,17.40
2023-01-06T07:39:15.196Z,19.90
2023-01-06T07:41:17.304Z,14.37
2023-01-06T07:43:19.384Z,16.97
2023-01-06T07:45:21.388Z,14.23
2023-01-06T07:47:23.694Z,18.00
2023-01-06T07:49:25.680Z,16.13
2023-01-06T07:51:27.639Z,14.53
2023-01-06T07:53:29.880Z,20.30
2023-01-06T07:55:31.833Z,15.20
2023-01-06T07:57:33.829Z,17.87
2023-01-06T07:59:35.842Z,17.87
2023-01-06T08:01:38.171Z,16.97
2023-01-06T08:03:40.195Z,14.03
2023-01-06T08:05:42.757Z,33.93
2023-01-06T08:07:45.033Z,26.03
2023-01-06T08:09:47.013Z,16.43
2023-01-06T08:11:49.069Z,17.73
2023-01-06T08:13:51.062Z,16.23
2023-01-06T08:15:53.096Z,15.43
2023-01-06T08:17:55.481Z,17.30
2023-01-06T08:19:57.462Z,10.33
2023-01-06T08:21:59.483Z,17.73
2023-01-06T08:24:01.485Z,14.53
2023-01-06T08:26:04.870Z,13.83
2023-01-06T08:28:07.001Z,15.83
2023-01-06T08:30:09.514Z,17.60
2023-01-06T08:32:11.592Z,11.27
2023-01-06T08:34:14.607Z,15.37
2023-01-06T08:36:21.593Z,9.13
2023-01-06T08:38:23.546Z,14.00
2023-01-06T08:40:25.814Z,12.63
2023-01-06T08:42:28.048Z,10.20
2023-01-06T08:44:30.107Z,11.77
2023-01-06T08:46:32.709Z,12.67
2023-01-06T08:48:35.375Z,13.70
2023-01-06T08:50:41.167Z,12.17
2023-01-06T08:52:43.143Z,16.60
2023-01-06T08:54:45.142Z,13.07
2023-01-06T08:56:47.203Z,10.50
2023-01-06T08:59:16.326Z,10.90
2023-01-06T09:01:20.341Z,6.80
2023-01-06T09:03:22.416Z,15.67
2023-01-06T09:05:24.458Z,12.60
2023-01-06T09:07:26.493Z,11.57
2023-01-06T09:09:28.548Z,10.90
2023-01-06T09:11:30.790Z,8.30
2023-01-06T09:13:32.892Z,13.97
2023-01-06T09:15:34.966Z,17.43
2023-01-06T09:17:37.057Z,9.70
2023-01-06T09:19:39.124Z,8.33
2023-01-06T09:21:42.867Z,11.90
2023-01-06T09:23:44.899Z,12.23
2023-01-06T09:25:46.878Z,11.37
2023-01-06T09:27:48.834Z,9.63
2023-01-06T09:29:50.972Z,10.03
2023-01-06T09:31:53.096Z,9.30
2023-01-06T09:33:55.095Z,10.63
2023-01-06T09:35:57.175Z,7.87
2023-01-06T09:37:59.264Z,11.77
2023-01-06T09:40:01.257Z,5.70
2023-01-06T09:42:06.138Z,7.47
2023-01-06T09:44:14.936Z,7.17
2023-01-06T09:46:20.371Z,9.03
2023-01-06T09:48:28.150Z,8.60
2023-01-06T09:50:40.480Z,9.60
2023-01-06T09:53:22.572Z,12.17
2023-01-06T09:56:04.518Z,12.07
2023-01-06T09:58:13.557Z,13.10
2023-01-06T10:00:30.353Z,10.03
2023-01-06T10:02:40.168Z,12.33
2023-01-06T10:04:42.270Z,9.90
2023-01-06T10:07:09.556Z,10.47
2023-01-06T10:09:21.110Z,11.17
2023-01-06T10:11:51.618Z,8.97
2023-01-06T10:14:06.539Z,7.30
2023-01-06T10:16:17.105Z,8.97
2023-01-06T10:18:19.137Z,6.00
2023-01-06T10:20:33.099Z,6.37
2023-01-06T10:22:47.663Z,7.30
2023-01-06T10:25:02.452Z,8.70
2023-01-06T10:27:46.544Z,6.57
2023-01-06T10:29:49.129Z,12.90
2023-01-06T10:31:53.659Z,7.03
2023-01-06T10:33:57.227Z,9.53
2023-01-06T10:35:59.739Z,10.40
2023-01-06T10:38:05.209Z,7.60
2023-01-06T10:40:18.621Z,11.63
2023-01-06T10:42:56.379Z,12.50
2023-01-06T10:44:58.402Z,23.13
2023-01-06T10:47:00.388Z,12.80
2023-01-06T10:49:03.506Z,9.13
2023-01-06T10:51:24.043Z,8.67
2023-01-06T10:53:26.187Z,3.90
2023-01-06T10:55:34.530Z,4.50
2023-01-06T10:57:39.205Z,4.07
2023-01-06T11:00:12.261Z,4.80
2023-01-06T11:02:22.420Z,5.13
2023-01-06T11:04:28.167Z,3.17
2023-01-06T11:06:31.055Z,6.33
2023-01-06T11:08:33.949Z,4.60
2023-01-06T11:10:43.981Z,4.83
2023-01-06T11:12:46.273Z,3.20
2023-01-06T11:14:55.690Z,3.97
2023-01-06T11:17:02.762Z,4.80
2023-01-06T11:19:07.259Z,3.83
2023-01-06T11:21:18.543Z,4.80
2023-01-06T11:23:22.774Z,4.07
2023-01-06T11:25:32.333Z,4.30
2023-01-06T11:27:34.535Z,3.53
2023-01-06T11:29:36.616Z,2.90
2023-01-06T11:31:38.699Z,2.53
2023-01-06T11:33:53.349Z,5.07
2023-01-06T11:35:56.346Z,5.90
2023-01-06T11:37:59.881Z,7.63
2023-01-06T11:40:20.968Z,3.50
2023-01-06T11:42:23.291Z,26.87
2023-01-06T11:44:34.977Z,8.00
2023-01-06T11:46:37.842Z,14.70
2023-01-06T11:49:02.022Z,15.10
2023-01-06T11:51:05.754Z,17.50
2023-01-06T11:53:18.152Z,24.93
2023-01-06T11:55:21.982Z,3.90
2023-01-06T11:57:39.200Z,2.90
2023-01-06T12:00:09.437Z,1.93
2023-01-06T12:02:18.089Z,2.90
2023-01-06T12:04:48.610Z,3.60
2023-01-06T12:06:52.538Z,4.10
2023-01-06T12:09:04.941Z,5.37
2023-01-06T12:11:30.131Z,2.20
2023-01-06T12:13:44.135Z,2.60
2023-01-06T12:15:57.103Z,1.77
2023-01-06T12:18:04.593Z,9.20
2023-01-06T12:20:28.036Z,3.37
2023-01-06T12:22:46.036Z,2.90
2023-01-06T12:24:48.906Z,1.57
2023-01-06T12:26:51.809Z,1.87
2023-01-06T12:28:55.306Z,1.70
2023-01-06T12:31:03.729Z,2.47
2023-01-06T12:33:17.549Z,1.70
2023-01-06T12:35:21.729Z,1.57
2023-01-06T12:37:39.978Z,6.40
2023-01-06T12:40:05.254Z,27.40
2023-01-06T12:42:15.609Z,38.07
2023-01-06T12:44:44.124Z,4.20
2023-01-06T12:46:59.932Z,3.73
2023-01-06T12:49:10.490Z,5.70
2023-01-06T12:51:24.484Z,4.40
2023-01-06T12:53:33.317Z,1.57
2023-01-06T12:55:50.903Z,1.50
2023-01-06T12:58:06.161Z,2.30
2023-01-06T13:00:35.453Z,1.80
2023-01-06T13:02:55.478Z,2.70
2023-01-06T13:04:57.512Z,1.80
2023-01-06T13:07:11.808Z,2.13
2023-01-06T13:09:29.177Z,5.80
2023-01-06T13:12:20.076Z,3.40
2023-01-06T13:14:32.308Z,2.50
2023-01-06T13:16:49.294Z,1.90
2023-01-06T13:19:12.700Z,5.47
2023-01-06T13:21:18.500Z,3.03
2023-01-06T13:23:58.178Z,2.80
2023-01-06T13:26:45.449Z,2.57
2023-01-06T13:28:59.402Z,2.30
2023-01-06T13:31:14.945Z,2.60
2023-01-06T13:33:51.042Z,2.63
2023-01-06T13:36:14.320Z,2.23
2023-01-06T13:38:34.657Z,5.73
2023-01-06T13:40:38.775Z,6.03
2023-01-06T13:43:08.952Z,4.13
2023-01-06T13:45:31.885Z,2.17
2023-01-06T13:47:35.339Z,2.07
2023-01-06T13:49:38.700Z,5.33
2023-01-06T13:51:44.221Z,2.87
2023-01-06T13:53:46.531Z,2.80
2023-01-06T13:55:49.274Z,1.80
2023-01-06T13:57:51.230Z,2.10
2023-01-06T14:00:12.628Z,5.93
2023-01-06T14:02:37.891Z,3.00
2023-01-06T14:04:49.034Z,3.30
2023-01-06T14:06:51.961Z,4.70
2023-01-06T14:08:59.330Z,1.83
2023-01-06T14:11:03.855Z,3.37
2023-01-06T14:13:28.305Z,2.00
2023-01-06T14:15:32.249Z,2.83
2023-01-06T14:17:42.116Z,5.00
2023-01-06T14:19:52.499Z,1.70
2023-01-06T14:21:56.326Z,5.07
2023-01-06T14:24:19.356Z,9.20
2023-01-06T14:26:22.827Z,7.93
2023-01-06T14:28:29.276Z,3.10
2023-01-06T14:30:35.811Z,16.27
2023-01-06T14:32:37.797Z,9.80
2023-01-06T14:34:58.385Z,8.03
2023-01-06T14:37:00.862Z,1.83
2023-01-06T14:39:05.455Z,2.63
2023-01-06T14:41:16.217Z,3.20
2023-01-06T14:43:40.154Z,4.37
2023-01-06T14:45:43.053Z,1.70
2023-01-06T14:47:48.111Z,6.40
2023-01-06T14:49:57.697Z,2.20
2023-01-06T14:52:12.172Z,3.00
2023-01-06T14:54:21.590Z,3.40
2023-01-06T14:56:25.201Z,4.37
2023-01-06T14:58:38.662Z,1.90
2023-01-06T15:00:45.638Z,1.90
2023-01-06T15:03:10.132Z,2.03
2023-01-06T15:05:38.941Z,2.03
2023-01-06T15:07:57.701Z,2.10
2023-01-06T15:10:17.771Z,4.40
2023-01-06T15:12:28.392Z,3.43
2023-01-06T15:14:34.994Z,6.07
2023-01-06T15:16:41.307Z,3.90
2023-01-06T15:18:44.740Z,5.00
2023-01-06T15:20:47.901Z,2.87
2023-01-06T15:22:50.216Z,5.23
2023-01-06T15:24:52.665Z,4.43
2023-01-06T15:26:57.002Z,2.40
2023-01-06T15:29:05.893Z,6.37
2023-01-06T15:31:18.478Z,3.43
2023-01-06T15:33:33.405Z,2.40
2023-01-06T15:35:35.460Z,5.07
2023-01-06T15:37:37.878Z,4.77
2023-01-06T15:39:40.841Z,4.63
2023-01-06T15:41:43.350Z,2.40
2023-01-06T15:43:46.014Z,3.33
2023-01-06T15:46:01.648Z,2.73
2023-01-06T15:48:14.941Z,5.40
2023-01-06T15:50:22.177Z,3.50
2023-01-06T15:52:49.088Z,4.40
2023-01-06T15:54:51.824Z,3.10
2023-01-06T15:56:53.849Z,2.40
2023-01-06T15:58:58.178Z,4.20
2023-01-06T16:01:17.184Z,3.63
2023-01-06T16:03:24.921Z,4.20
2023-01-06T16:06:11.225Z,3.57
2023-01-06T16:08:22.969Z,4.33
2023-01-06T16:10:36.949Z,2.43
2023-01-06T16:12:38.919Z,2.40
2023-01-06T16:14:43.896Z,3.50
2023-01-06T16:16:45.957Z,3.00
2023-01-06T16:18:48.222Z,3.00
2023-01-06T16:20:50.277Z,3.37
2023-01-06T16:22:55.078Z,3.80
2023-01-06T16:24:57.523Z,11.13
2023-01-06T16:27:06.526Z,10.93
2023-01-06T16:29:44.023Z,4.77
2023-01-06T16:31:46.177Z,3.37
2023-01-06T16:33:48.252Z,4.13
2023-01-06T16:35:51.830Z,4.17
2023-01-06T16:37:54.242Z,2.63
2023-01-06T16:39:59.429Z,4.20
2023-01-06T16:42:37.742Z,3.70
2023-01-06T16:44:39.737Z,2.67
2023-01-06T16:46:41.821Z,3.30
2023-01-06T16:48:43.926Z,2.80
2023-01-06T16:50:50.561Z,5.20
2023-01-06T16:53:20.597Z,6.40
2023-01-06T16:55:22.792Z,3.23
2023-01-06T16:57:24.768Z,5.33
2023-01-06T16:59:28.985Z,5.53
2023-01-06T17:01:31.134Z,3.70
2023-01-06T17:03:36.985Z,5.43
2023-01-06T17:05:39.914Z,2.93
2023-01-06T17:07:42.082Z,2.83
2023-01-06T17:09:44.154Z,3.83
2023-01-06T17:11:47.518Z,4.10
2023-01-06T17:14:04.687Z,3.77
2023-01-06T17:16:06.847Z,4.50
2023-01-06T17:18:28.890Z,2.90
2023-01-06T17:20:31.992Z,3.17
2023-01-06T17:22:34.022Z,11.13
2023-01-06T17:24:36.249Z,5.73
2023-01-06T17:26:38.734Z,3.93
2023-01-06T17:28:41.341Z,3.40
2023-01-06T17:30:43.403Z,3.50
2023-01-06T17:32:47.587Z,4.10
2023-01-06T17:34:49.782Z,3.90
2023-01-06T17:36:53.535Z,5.90
2023-01-06T17:38:55.702Z,7.10
2023-01-06T17:40:58.227Z,18.87
2023-01-06T17:43:08.065Z,16.63
2023-01-06T17:45:28.837Z,14.33
2023-01-06T17:47:53.888Z,13.50
2023-01-06T17:49:57.696Z,9.73
2023-01-06T17:52:22.842Z,7.60
2023-01-06T17:54:44.373Z,5.73
2023-01-06T17:56:46.961Z,6.90
2023-01-06T17:58:48.969Z,6.03
2023-01-06T18:00:51.029Z,10.47
2023-01-06T18:03:05.922Z,5.60
2023-01-06T18:05:33.300Z,5.87
2023-01-06T18:07:35.488Z,5.63
2023-01-06T18:09:37.840Z,6.30
2023-01-06T18:11:41.237Z,10.67
2023-01-06T18:13:43.257Z,7.27
2023-01-06T18:15:50.866Z,10.97
2023-01-06T18:17:54.210Z,9.87
2023-01-06T18:19:56.242Z,7.03
2023-01-06T18:21:58.554Z,7.57
2023-01-06T18:24:11.652Z,6.40
2023-01-06T18:26:35.462Z,4.87
2023-01-06T18:28:37.538Z,4.30
2023-01-06T18:30:39.794Z,5.30
2023-01-06T18:32:43.239Z,5.43
2023-01-06T18:34:45.393Z,5.77
2023-01-06T18:36:49.583Z,8.93
2023-01-06T18:38:51.789Z,5.90
2023-01-06T18:40:54.600Z,6.20
2023-01-06T18:42:56.625Z,5.17
2023-01-06T18:45:07.390Z,6.90
2023-01-06T18:47:16.773Z,5.90
2023-01-06T18:49:18.803Z,5.80
2023-01-06T18:51:24.163Z,7.97
2023-01-06T18:53:28.887Z,5.10
2023-01-06T18:55:36.309Z,8.40
2023-01-06T18:57:38.267Z,7.20
2023-01-06T18:59:40.226Z,7.00
2023-01-06T19:01:49.602Z,6.03
2023-01-06T19:04:16.144Z,7.83
2023-01-06T19:06:18.087Z,6.20
2023-01-06T19:08:23.236Z,6.73
2023-01-06T19:10:27.926Z,6.23
2023-01-06T19:12:31.617Z,8.20
2023-01-06T19:14:35.748Z,9.37
2023-01-06T19:16:51.733Z,9.33
2023-01-06T19:18:56.245Z,5.60
2023-01-06T19:20:59.594Z,6.20
2023-01-06T19:23:15.170Z,6.87
2023-01-06T19:25:32.946Z,6.90
2023-01-06T19:27:47.442Z,6.50
2023-01-06T19:29:49.544Z,5.20
2023-01-06T19:31:55.471Z,4.83
2023-01-06T19:34:01.351Z,5.83
2023-01-06T19:36:06.278Z,3.87
2023-01-06T19:38:38.560Z,5.00
2023-01-06T19:40:42.081Z,15.00
2023-01-06T19:42:44.168Z,21.77
2023-01-06T19:44:49.271Z,7.47
2023-01-06T19:46:51.238Z,5.27
2023-01-06T19:48:53.854Z,5.40
2023-01-06T19:51:33.640Z,8.63
2023-01-06T19:53:46.554Z,5.77
2023-01-06T19:55:48.567Z,6.10
2023-01-06T19:57:53.350Z,6.17
2023-01-06T20:00:00.063Z,4.03
2023-01-06T20:02:25.963Z,5.93
2023-01-06T20:04:28.471Z,5.30
2023-01-06T20:06:30.552Z,4.73
2023-01-06T20:08:32.915Z,3.90
2023-01-06T20:10:34.869Z,5.20
2023-01-06T20:12:36.944Z,7.83
2023-01-06T20:14:39.032Z,8.17
2023-01-06T20:16:41.079Z,4.93
2023-01-06T20:18:43.189Z,3.93
2023-01-06T20:20:45.149Z,6.67
2023-01-06T20:22:47.190Z,6.67
2023-01-06T20:24:49.143Z,4.63
2023-01-06T20:26:51.168Z,4.30
2023-01-06T20:28:53.124Z,4.33
2023-01-06T20:30:55.099Z,4.13
2023-01-06T20:32:57.164Z,3.77
2023-01-06T20:34:59.248Z,8.43
2023-01-06T20:37:01.251Z,5.83
2023-01-06T20:39:03.413Z,5.17
2023-01-06T20:41:05.738Z,5.90
2023-01-06T20:43:07.947Z,4.33
2023-01-06T20:45:10.795Z,4.40
2023-01-06T20:47:12.859Z,4.77
2023-01-06T20:49:17.009Z,4.40
2023-01-06T20:51:18.921Z,7.40
2023-01-06T20:53:20.948Z,5.10
2023-01-06T20:55:23.299Z,4.83
2023-01-06T20:57:25.812Z,4.87
2023-01-06T20:59:27.982Z,4.80
2023-01-06T21:01:30.128Z,6.70
2023-01-06T21:03:32.228Z,6.30
2023-01-06T21:05:34.304Z,9.80
2023-01-06T21:07:36.313Z,5.20
2023-01-06T21:09:38.284Z,6.17
2023-01-06T21:11:40.225Z,4.70
2023-01-06T21:13:42.213Z,5.57
2023-01-06T21:15:44.210Z,7.00
2023-01-06T21:17:46.289Z,5.93
2023-01-06T21:19:48.515Z,6.40
2023-01-06T21:21:50.590Z,8.60
2023-01-06T21:23:52.633Z,6.73
2023-01-06T21:25:54.581Z,7.70
2023-01-06T21:27:56.638Z,8.90
2023-01-06T21:29:58.594Z,7.37
2023-01-06T21:32:00.600Z,6.20
2023-01-06T21:34:02.594Z,6.73
2023-01-06T21:36:04.919Z,8.37
2023-01-06T21:38:07.035Z,6.23
2023-01-06T21:40:09.710Z,7.03
2023-01-06T21:42:30.467Z,6.30
2023-01-06T21:44:32.476Z,7.00
2023-01-06T21:46:34.503Z,6.57
2023-01-06T21:48:36.428Z,6.80
2023-01-06T21:50:41.431Z,5.83
2023-01-06T21:52:44.931Z,8.67
2023-01-06T21:54:47.016Z,6.70
2023-01-06T21:56:49.785Z,6.20
2023-01-06T21:58:51.864Z,8.20
2023-01-06T22:00:53.947Z,6.93
2023-01-06T22:02:56.135Z,8.03
2023-01-06T22:04:58.481Z,9.30
2023-01-06T22:07:03.528Z,8.63
2023-01-06T22:09:06.837Z,12.40
2023-01-06T22:11:08.877Z,9.40
2023-01-06T22:13:13.148Z,9.60
2023-01-06T22:15:15.809Z,7.97
2023-01-06T22:17:18.683Z,10.27
2023-01-06T22:19:20.677Z,6.83
2023-01-06T22:21:23.335Z,7.80
2023-01-06T22:23:25.415Z,7.33
2023-01-06T22:25:27.387Z,5.93
2023-01-06T22:27:29.401Z,7.17
2023-01-06T22:29:31.435Z,6.63
2023-01-06T22:31:34.172Z,8.83
2023-01-06T22:33:36.252Z,9.10
2023-01-06T22:35:38.267Z,6.70
2023-01-06T22:37:40.845Z,7.33
2023-01-06T22:39:44.053Z,6.67
2023-01-06T22:41:47.293Z,6.93
2023-01-06T22:43:50.234Z,11.50
2023-01-06T22:45:53.226Z,8.37
2023-01-06T22:47:55.282Z,6.47
2023-01-06T22:49:57.723Z,9.20
2023-01-06T22:51:59.709Z,10.40
2023-01-06T22:54:01.757Z,6.67
2023-01-06T22:56:06.171Z,10.50
2023-01-06T22:58:08.192Z,8.83
2023-01-06T23:00:14.156Z,10.00
2023-01-06T23:02:16.267Z,9.20
2023-01-06T23:04:18.354Z,13.93
2023-01-06T23:06:20.749Z,10.90
2023-01-06T23:08:22.837Z,8.33
2023-01-06T23:10:24.803Z,8.33
2023-01-06T23:12:26.797Z,12.40
2023-01-06T23:14:28.925Z,9.13
2023-01-06T23:16:30.921Z,8.17
2023-01-06T23:18:35.645Z,9.57
2023-01-06T23:20:37.852Z,9.40
2023-01-06T23:22:39.981Z,9.63
2023-01-06T23:24:42.018Z,9.53
2023-01-06T23:26:46.146Z,10.10
2023-01-06T23:28:48.870Z,9.43
2023-01-06T23:30:50.997Z,11.47
2023-01-06T23:32:53.026Z,11.07
2023-01-06T23:34:55.091Z,11.43
2023-01-06T23:36:57.201Z,8.60
2023-01-06T23:39:00.975Z,9.37
2023-01-06T23:41:03.005Z,10.97
2023-01-06T23:43:05.015Z,10.10
2023-01-06T23:45:07.632Z,8.70
2023-01-06T23:47:09.595Z,8.67
2023-01-06T23:49:13.529Z,9.53
2023-01-06T23:51:16.104Z,8.23
2023-01-06T23:53:18.246Z,11.00
2023-01-06T23:55:20.376Z,8.40
2023-01-06T23:57:22.467Z,10.00
2023-01-06T23:59:24.655Z,9.37
